Terminal Aerodrome Forecast
Issued by NWS

Home | Current Version | Previous Version | Text Only | Print | Product List | Glossary On
Versions: 1 2 3 4 5 6 7 8 9 10 11 12 13 14 15 16 17 18 19 20 21 22 23 24 25 26 27 28 29 30 31 32 33 34
000
FTUS45 KBOU 052327
TAFBJC
TAF
KBJC 052327Z 0600/0624 32015KT P6SM VCTS SCT080CB BKN120
      TEMPO 0600/0602 -SHRA BKN070
     FM060200 33010KT P6SM VCSH SCT080 BKN120
     FM060500 01012KT P6SM VCSH SCT080 BKN120
     FM060900 02012KT P6SM VCSH BKN015 OVC040
      TEMPO 0609/0613 -SHRA
     FM061300 03010KT P6SM VCSH BKN020 PROB30 0613/0617 -SHRA
     FM061900 04007KT P6SM VCTS SCT025CB BKN040
      TEMPO 0621/0624 -SHRA BKN025=

USA.gov is the U.S. government's official web portal to all federal, state and local government web resources and services.